Time;durP1;ratioP1;P1;durP2;ratioP2;P2;SDS_P1;SDS_P2;PMS_P1;PMS_P2;Temp;Humidity;BMP_temperature;BMP_pressure;BME280_temperature;BME280_humidity;BME280_pressure;Samples;Min_cycle;Max_cycle;Signal;HPM_P1;HPM_P2
2022/09/03 00:02:32;;;;;;;1.33;1.02;;;8.30;89.40;;;;;;5078466;28;20024;-88
2022/09/03 00:05:13;;;;;;;;;;;8.30;89.60;;;;;;5073068;28;20052;-86
2022/09/03 00:08:05;;;;;;;2.28;1.35;;;;;;;;;;5081605;28;19908;-86
2022/09/03 00:10:36;;;;;;;7.47;1.63;;;;;;;;;;5082883;28;20477;-87
2022/09/03 00:13:04;;;;;;;3.78;1.38;;;;;;;;;;5082271;28;20028;-88
2022/09/03 00:15:33;;;;;;;1.38;1.00;;;;;;;;;;5083378;28;20020;-88
2022/09/03 00:18:05;;;;;;;1.83;1.10;;;;;;;;;;5088004;28;20036;-88
2022/09/03 00:20:34;;;;;;;1.73;1.35;;;;;;;;;;5097492;28;20369;-90
2022/09/03 00:23:03;;;;;;;4.10;1.83;;;;;;;;;;5089557;28;20035;-89
2022/09/03 00:25:44;;;;;;;1.85;1.40;;;;;;;;;;5097901;28;20505;-87
2022/09/03 00:28:18;;;;;;;4.78;1.73;;;;;;;;;;5125570;27;20031;-87
2022/09/03 00:30:46;;;;;;;2.35;1.55;;;;;;;;;;5090839;28;20042;-89
2022/09/03 00:33:20;;;;;;;2.97;1.88;;;;;;;;;;5095946;28;20022;-86
2022/09/03 00:35:50;;;;;;;4.70;1.90;;;;;;;;;;5082245;28;20035;-86
2022/09/03 00:38:16;;;;;;;2.08;1.55;;;;;;;;;;5090590;28;20095;-87
2022/09/03 00:40:56;;;;;;;3.92;1.60;;;;;;;;;;5093000;28;20018;-85
2022/09/03 00:43:34;;;;;;;3.42;1.73;;;;;;;;;;5086516;28;20021;-86
2022/09/03 00:46:04;;;;;;;2.25;1.60;;;;;;;;;;5093554;28;20529;-87
2022/09/03 00:48:32;;;;;;;2.75;1.42;;;;;;;;;;5095350;28;20020;-85
2022/09/03 00:51:04;;;;;;;2.67;1.85;;;;;;;;;;5099665;28;20020;-86
2022/09/03 00:53:33;;;;;;;3.85;1.27;;;;;;;;;;5102345;28;20086;-86
2022/09/03 00:56:18;;;;;;;1.92;1.55;;;;;;;;;;5077627;28;20069;-86
2022/09/03 00:58:44;;;;;;;3.78;1.48;;;;;;;;;;5096540;28;20078;-87
2022/09/03 01:01:27;;;;;;;2.67;1.20;;;8.30;89.10;;;;;;5090275;28;20020;-86
2022/09/03 01:04:14;;;;;;;2.17;1.35;;;7.80;91.50;;;;;;5088793;28;20107;-86
2022/09/03 01:06:57;;;;;;;1.80;1.20;;;7.80;91.60;;;;;;5090131;28;20057;-86
2022/09/03 01:09:36;;;;;;;3.72;1.55;;;7.80;91.60;;;;;;5082630;28;20053;-84
2022/09/03 01:12:49;;;;;;;2.30;1.70;;;7.70;91.60;;;;;;5103835;27;20083;-85
2022/09/03 01:15:27;;;;;;;2.60;1.35;;;7.70;91.70;;;;;;5091413;28;20036;-86
2022/09/03 01:18:16;;;;;;;2.28;1.45;;;7.70;91.80;;;;;;5085200;28;20055;-85
2022/09/03 01:21:03;;;;;;;3.15;2.30;;;7.70;91.80;;;;;;5089941;28;20085;-85
2022/09/03 01:23:55;;;;;;;2.65;1.90;;;7.70;92.20;;;;;;5090484;28;20051;-86
2022/09/03 01:26:36;;;;;;;3.58;2.15;;;7.70;91.90;;;;;;5088171;28;20116;-84
2022/09/03 01:29:24;;;;;;;2.17;1.90;;;7.70;92.00;;;;;;5119772;28;20037;-84
2022/09/03 01:32:00;;;;;;;7.35;2.05;;;7.70;92.10;;;;;;5097451;28;20374;-85
2022/09/03 01:34:46;;;;;;;3.25;1.92;;;7.70;92.10;;;;;;5084306;28;20028;-85
2022/09/03 01:37:39;;;;;;;2.53;2.00;;;7.70;92.10;;;;;;5092939;28;20024;-83
2022/09/03 01:40:10;;;;;;;2.30;2.05;;;7.60;92.10;;;;;;5093918;28;20046;-85
2022/09/03 01:42:53;;;;;;;2.78;2.10;;;7.60;92.20;;;;;;5096576;28;20020;-85
2022/09/03 01:45:27;;;;;;;2.17;1.65;;;7.60;92.30;;;;;;5088894;28;20020;-86
2022/09/03 01:48:18;;;;;;;3.83;2.10;;;7.60;92.30;;;;;;5074886;28;20115;-85
2022/09/03 01:51:07;;;;;;;4.75;2.90;;;7.60;92.30;;;;;;5074299;28;20020;-85
2022/09/03 01:54:04;;;;;;;2.92;2.05;;;7.60;92.30;;;;;;5088830;28;20031;-85
2022/09/03 01:56:41;;;;;;;3.08;2.45;;;7.60;92.30;;;;;;5083787;28;20032;-84
2022/09/03 01:59:19;;;;;;;;;;;7.60;92.30;;;;;;5090481;28;20024;-85
2022/09/03 02:02:11;;;;;;;3.13;2.22;;;7.60;92.10;;;;;;5096038;28;20282;-86
2022/09/03 02:04:37;;;;;;;4.88;2.00;;;7.50;92.20;;;;;;5095098;28;20039;-87
2022/09/03 02:07:04;;;;;;;2.95;1.90;;;7.50;92.30;;;;;;5080482;28;20028;-85
2022/09/03 02:09:30;;;;;;;2.30;2.10;;;7.50;92.40;;;;;;5082480;28;20020;-85
2022/09/03 02:12:13;;;;;;;3.03;1.70;;;7.50;92.40;;;;;;5093414;28;20440;-85
2022/09/03 02:14:39;;;;;;;3.72;2.03;;;7.50;92.50;;;;;;5083729;28;20038;-85
2022/09/03 02:17:07;;;;;;;3.63;2.35;;;7.50;92.50;;;;;;5078324;28;20481;-86
2022/09/03 02:19:33;;;;;;;;;;;7.50;92.40;;;;;;5075956;28;20055;-85
2022/09/03 02:21:59;;;;;;;8.25;2.78;;;7.50;92.30;;;;;;5080180;28;19915;-85
2022/09/03 02:24:27;;;;;;;5.93;1.98;;;7.50;92.40;;;;;;5078346;28;20021;-85
2022/09/03 02:26:53;;;;;;;4.47;2.13;;;7.50;92.50;;;;;;5075990;28;20032;-86
2022/09/03 02:29:20;;;;;;;3.13;2.05;;;7.50;92.50;;;;;;5078741;28;20025;-87
2022/09/03 02:31:46;;;;;;;4.87;2.27;;;7.50;92.50;;;;;;5083046;28;20024;-86
2022/09/03 02:34:12;;;;;;;2.88;1.95;;;7.50;92.50;;;;;;5091722;28;20024;-86
2022/09/03 02:36:47;;;;;;;4.70;1.80;;;7.50;92.50;;;;;;5076538;28;20025;-85
2022/09/03 02:39:14;;;;;;;2.60;1.95;;;7.40;92.50;;;;;;5101576;28;20016;-86
2022/09/03 02:41:40;;;;;;;4.10;1.73;;;7.40;92.50;;;;;;5082994;28;20024;-85
2022/09/03 02:44:22;;;;;;;2.22;2.00;;;7.40;92.50;;;;;;5092097;28;20119;-86
2022/09/03 02:47:01;;;;;;;4.18;1.63;;;7.40;92.60;;;;;;5089571;28;20457;-84
2022/09/03 02:49:27;;;;;;;4.13;2.03;;;7.40;92.60;;;;;;5101157;28;20118;-85
2022/09/03 02:52:04;;;;;;;2.20;1.75;;;7.40;92.50;;;;;;5074666;28;20021;-85
2022/09/03 02:54:32;;;;;;;2.58;2.05;;;7.30;92.60;;;;;;5075006;28;20094;-87
2022/09/03 02:56:58;;;;;;;3.70;2.15;;;7.40;92.60;;;;;;5074668;28;20088;-85
2022/09/03 02:59:27;;;;;;;3.00;2.08;;;7.40;92.60;;;;;;5075824;28;20547;-85
2022/09/03 03:01:53;;;;;;;3.42;1.98;;;7.40;92.70;;;;;;5084367;28;20021;-85
2022/09/03 03:04:20;;;;;;;3.95;2.60;;;7.40;92.70;;;;;;5082806;28;20028;-85
2022/09/03 03:06:46;;;;;;;4.28;2.35;;;7.50;92.70;;;;;;5080074;28;21176;-85
2022/09/03 03:09:12;;;;;;;3.92;2.30;;;7.50;92.70;;;;;;5085342;28;20028;-85
2022/09/03 03:11:39;;;;;;;3.60;2.30;;;7.50;92.60;;;;;;5080731;28;20381;-87
2022/09/03 03:14:05;;;;;;;2.67;2.05;;;7.60;92.60;;;;;;5076275;28;20028;-86
2022/09/03 03:16:30;;;;;;;3.15;2.40;;;7.60;92.50;;;;;;5090838;28;20037;-84
2022/09/03 03:18:57;;;;;;;3.08;2.35;;;7.60;92.40;;;;;;5076549;28;20078;-87
2022/09/03 03:21:23;;;;;;;4.22;2.33;;;7.60;92.40;;;;;;5079049;28;20016;-85
2022/09/03 03:23:49;;;;;;;3.20;2.40;;;7.70;92.40;;;;;;5093034;28;20079;-85
2022/09/03 03:26:17;;;;;;;3.05;2.25;;;7.70;92.30;;;;;;5073507;28;20078;-86
2022/09/03 03:28:45;;;;;;;3.75;2.33;;;7.80;92.20;;;;;;5083540;28;20039;-86
2022/09/03 03:31:12;;;;;;;;;;;7.80;92.10;;;;;;5089736;28;20028;-87
2022/09/03 03:33:39;;;;;;;3.35;2.33;;;7.90;92.00;;;;;;5114300;28;19912;-88
2022/09/03 03:36:07;;;;;;;4.03;3.53;;;7.90;92.00;;;;;;5101998;28;20031;-88
2022/09/03 03:38:34;;;;;;;8.32;3.83;;;8.00;91.90;;;;;;5095831;28;20267;-86
2022/09/03 03:41:09;;;;;;;5.32;3.35;;;8.10;91.80;;;;;;5088500;28;20024;-89
2022/09/03 03:43:35;;;;;;;8.23;3.67;;;8.20;91.70;;;;;;5095707;28;20453;-88
2022/09/03 03:46:01;;;;;;;8.05;3.97;;;8.20;91.60;;;;;;5098567;28;20024;-87
2022/09/03 03:48:27;;;;;;;4.32;3.83;;;8.30;91.50;;;;;;5099143;28;20032;-88
2022/09/03 03:50:53;;;;;;;4.63;3.65;;;8.40;91.40;;;;;;5110345;28;20020;-90
2022/09/03 03:53:19;;;;;;;8.38;3.40;;;8.40;91.10;;;;;;5112616;27;20020;-91
2022/09/03 03:55:59;;;;;;;5.10;3.80;;;8.40;91.00;;;;;;5114990;28;20020;-89
2022/09/03 03:58:31;;;;;;;4.30;3.15;;;8.50;91.00;;;;;;5114912;28;20021;-90
2022/09/03 04:01:05;;;;;;;7.15;3.92;;;8.60;90.80;;;;;;5101400;28;20050;-90
2022/09/03 04:03:30;;;;;;;6.72;4.03;;;8.70;90.70;;;;;;5114974;28;20039;-89
2022/09/03 04:05:58;;;;;;;6.03;3.60;;;8.70;90.50;;;;;;5083725;28;20025;-90
2022/09/03 04:08:24;;;;;;;;;;;8.70;90.20;;;;;;5098394;28;20428;-90
2022/09/03 04:10:50;;;;;;;4.25;3.58;;;8.70;90.20;;;;;;5098409;28;19904;-90
2022/09/03 04:13:17;;;;;;;7.25;4.25;;;8.70;90.30;;;;;;5098449;28;20031;-89
2022/09/03 04:15:44;;;;;;;6.32;3.72;;;8.80;90.30;;;;;;5104136;28;20020;-90
2022/09/03 04:18:10;;;;;;;5.85;3.72;;;8.90;90.40;;;;;;5102137;28;20474;-90
2022/09/03 04:20:36;;;;;;;5.40;3.00;;;9.00;90.40;;;;;;5092350;28;20016;-90
2022/09/03 04:23:03;;;;;;;4.15;2.85;;;9.00;90.30;;;;;;5104668;28;20008;-86
2022/09/03 04:25:30;;;;;;;4.75;3.08;;;9.20;90.30;;;;;;5103632;28;20020;-90
2022/09/03 04:27:56;;;;;;;5.30;2.63;;;9.60;90.00;;;;;;5091134;28;20089;-88
2022/09/03 04:30:22;;;;;;;4.95;3.22;;;;;;;;;;5097764;28;20534;-89
2022/09/03 04:32:52;;;;;;;5.40;3.45;;;;;;;;;;5098642;28;20120;-89
2022/09/03 04:35:19;;;;;;;4.22;3.22;;;10.10;88.10;;;;;;5116982;28;20039;-88
2022/09/03 04:37:46;;;;;;;6.35;3.17;;;12.20;80.50;;;;;;5111981;28;20028;-89
2022/09/03 04:40:12;;;;;;;4.68;2.90;;;;;;;;;;5102709;28;20038;-91
2022/09/03 04:42:38;;;;;;;4.47;2.45;;;;;;;;;;5093931;28;20367;-89
2022/09/03 04:45:05;;;;;;;3.90;2.85;;;;;;;;;;5084470;28;20047;-88
2022/09/03 04:47:31;;;;;;;5.60;2.83;;;12.90;77.60;;;;;;5087181;28;20505;-90
2022/09/03 04:49:57;;;;;;;4.28;2.65;;;14.70;69.20;;;;;;5085936;28;20013;-90
2022/09/03 04:52:23;;;;;;;3.83;2.65;;;14.80;67.60;;;;;;5108805;28;20024;-88
2022/09/03 04:54:49;;;;;;;5.85;2.75;;;15.30;66.50;;;;;;5081664;28;20496;-90
2022/09/03 04:57:15;;;;;;;3.13;2.33;;;15.70;65.00;;;;;;5090412;28;20023;-84
2022/09/03 04:59:41;;;;;;;4.43;2.35;;;15.50;63.80;;;;;;5088441;28;20016;-85
2022/09/03 05:02:08;;;;;;;6.30;2.70;;;14.90;64.40;;;;;;5079700;28;20505;-85
2022/09/03 05:04:35;;;;;;;7.13;2.55;;;14.00;66.30;;;;;;5090742;28;20091;-85
2022/09/03 05:07:01;;;;;;;5.93;2.22;;;13.10;68.40;;;;;;5099785;28;20398;-83
2022/09/03 05:09:27;;;;;;;3.25;2.33;;;12.40;70.80;;;;;;5075913;28;20381;-86
2022/09/03 05:11:53;;;;;;;3.72;2.55;;;12.20;73.60;;;;;;5082694;28;20017;-85
2022/09/03 05:14:20;;;;;;;4.57;2.63;;;12.80;74.00;;;;;;5080076;28;20024;-85
2022/09/03 05:16:46;;;;;;;3.20;2.13;;;13.80;71.50;;;;;;5089545;28;20041;-86
2022/09/03 05:19:12;;;;;;;4.57;2.33;;;14.90;68.40;;;;;;5080731;28;20021;-86
2022/09/03 05:21:38;;;;;;;4.15;2.78;;;15.60;64.60;;;;;;5093111;28;20035;-86
2022/09/03 05:24:04;;;;;;;4.03;2.70;;;14.90;64.70;;;;;;5088429;28;20024;-85
2022/09/03 05:26:36;;;;;;;3.80;2.40;;;14.10;65.90;;;;;;5074117;28;20104;-83
2022/09/03 05:29:06;;;;;;;5.22;2.67;;;12.90;68.90;;;;;;5074049;28;20039;-85
2022/09/03 05:31:33;;;;;;;3.72;2.22;;;12.20;71.40;;;;;;5089404;28;20066;-86
2022/09/03 05:34:03;;;;;;;3.95;2.88;;;11.60;73.50;;;;;;5090179;28;20523;-87
2022/09/03 05:36:33;;;;;;;3.47;2.40;;;11.00;75.70;;;;;;5085817;28;20066;-88
2022/09/03 05:38:59;;;;;;;4.68;2.53;;;10.70;77.40;;;;;;5097656;28;20068;-88
2022/09/03 05:41:27;;;;;;;5.35;3.35;;;10.50;78.40;;;;;;5096621;28;20017;-88
2022/09/03 05:43:54;;;;;;;6.20;2.83;;;10.40;79.20;;;;;;5092879;28;20359;-86
2022/09/03 05:46:25;;;;;;;3.90;2.83;;;10.40;79.70;;;;;;5084793;28;20020;-85
2022/09/03 05:48:51;;;;;;;7.90;2.33;;;10.30;80.10;;;;;;5086323;28;20025;-86
2022/09/03 05:51:17;;;;;;;2.47;2.05;;;10.30;80.40;;;;;;5077908;28;20516;-86
2022/09/03 05:53:45;;;;;;;3.35;2.88;;;10.20;80.80;;;;;;5076998;28;20048;-86
2022/09/03 05:56:12;;;;;;;3.97;2.60;;;;;;;;;;5086929;28;20051;-87
2022/09/03 05:58:44;;;;;;;6.35;2.10;;;10.40;81.20;;;;;;5083747;28;20020;-87
2022/09/03 06:01:24;;;;;;;2.47;2.25;;;13.80;76.80;;;;;;5081479;28;20135;-87
2022/09/03 06:04:08;;;;;;;2.50;2.15;;;16.30;68.40;;;;;;5088401;28;20054;-87
2022/09/03 06:06:36;;;;;;;2.42;1.90;;;18.40;61.40;;;;;;5080169;28;20032;-86
2022/09/03 06:09:12;;;;;;;4.72;2.20;;;19.90;56.70;;;;;;5100201;28;20028;-87
2022/09/03 06:11:41;;;;;;;2.10;1.70;;;21.30;53.10;;;;;;5096156;28;20021;-91
2022/09/03 06:14:08;;;;;;;5.00;1.60;;;;;;;;;;5097136;28;20020;-89
2022/09/03 06:16:37;;;;;;;4.18;2.13;;;22.40;47.70;;;;;;5092039;28;20062;-89
2022/09/03 06:19:09;;;;;;;5.38;1.80;;;22.60;48.30;;;;;;5093035;28;20386;-89
2022/09/03 06:21:36;;;;;;;2.17;1.77;;;23.30;46.40;;;;;;5093630;28;20028;-89
2022/09/03 06:24:02;;;;;;;3.47;1.92;;;24.00;45.30;;;;;;5099085;28;20141;-89
2022/09/03 06:26:28;;;;;;;1.87;1.40;;;25.00;43.50;;;;;;5086511;28;20049;-90
2022/09/03 06:28:55;;;;;;;1.50;1.23;;;25.80;42.00;;;;;;5094389;28;20047;-89
2022/09/03 06:31:21;;;;;;;2.47;1.57;;;25.80;40.80;;;;;;5083975;28;20016;-89
2022/09/03 06:33:48;;;;;;;5.70;1.75;;;25.60;40.50;;;;;;5103726;28;20115;-90
2022/09/03 06:36:18;;;;;;;5.28;1.80;;;25.40;40.70;;;;;;5095195;28;20104;-89
2022/09/03 06:38:45;;;;;;;5.00;2.60;;;25.50;40.80;;;;;;5104642;27;20020;-88
2022/09/03 06:41:24;;;;;;;1.52;1.10;;;26.10;40.50;;;;;;5093846;28;20017;-89
2022/09/03 06:44:03;;;;;;;5.20;1.92;;;26.80;38.70;;;;;;5114610;28;20064;-88
2022/09/03 06:46:37;;;;;;;4.13;1.40;;;27.30;38.00;;;;;;5103846;28;20393;-88
2022/09/03 06:49:03;;;;;;;2.58;1.42;;;27.60;37.50;;;;;;5085887;28;20461;-89
2022/09/03 06:51:31;;;;;;;1.90;1.40;;;27.80;37.50;;;;;;5095362;28;20032;-89
2022/09/03 06:54:05;;;;;;;1.85;1.25;;;28.30;36.90;;;;;;5095671;28;20433;-90
2022/09/03 06:56:32;;;;;;;2.53;1.13;;;28.00;36.50;;;;;;5094357;28;20016;-90
2022/09/03 06:58:59;;;;;;;;;;;27.20;36.80;;;;;;5102538;28;20027;-89
2022/09/03 07:01:30;;;;;;;2.95;1.30;;;27.70;39.40;;;;;;5100467;28;19904;-89
2022/09/03 07:04:01;;;;;;;6.05;1.75;;;28.50;36.70;;;;;;5086189;28;20099;-89
2022/09/03 07:06:30;;;;;;;3.47;1.20;;;29.30;35.60;;;;;;5093991;28;20518;-88
2022/09/03 07:09:05;;;;;;;2.85;1.10;;;29.50;34.70;;;;;;5091557;28;20385;-89
2022/09/03 07:11:32;;;;;;;2.13;1.20;;;29.50;34.50;;;;;;5090294;28;20039;-88
2022/09/03 07:13:59;;;;;;;5.22;2.53;;;29.30;34.30;;;;;;5087946;28;20024;-87
2022/09/03 07:16:28;;;;;;;8.70;1.80;;;29.70;34.20;;;;;;5096216;28;20047;-87
2022/09/03 07:18:55;;;;;;;2.53;1.50;;;30.00;33.40;;;;;;5094976;28;20111;-87
2022/09/03 07:21:25;;;;;;;5.28;1.60;;;29.80;33.20;;;;;;5104679;28;20016;-90
2022/09/03 07:23:52;;;;;;;2.40;1.50;;;30.00;33.10;;;;;;5089756;28;20017;-90
2022/09/03 07:26:20;;;;;;;3.08;0.90;;;30.50;32.70;;;;;;5090763;28;20023;-90
2022/09/03 07:28:47;;;;;;;5.00;2.08;;;29.80;32.20;;;;;;5089876;28;20040;-89
2022/09/03 07:31:28;;;;;;;4.43;1.33;;;28.60;33.30;;;;;;5107915;28;20028;-90
2022/09/03 07:33:55;;;;;;;2.95;1.42;;;28.60;34.30;;;;;;5091205;28;20034;-89
2022/09/03 07:36:25;;;;;;;1.42;1.00;;;29.00;33.60;;;;;;5093675;28;20012;-91
2022/09/03 07:38:54;;;;;;;4.82;1.60;;;29.20;33.00;;;;;;5096571;28;20062;-90
2022/09/03 07:41:21;;;;;;;4.22;1.70;;;29.50;33.00;;;;;;5097905;28;20020;-92
2022/09/03 07:43:48;;;;;;;3.50;1.23;;;30.00;33.00;;;;;;5101902;28;20106;-92
2022/09/03 07:46:22;;;;;;;2.70;0.98;;;30.80;32.30;;;;;;5118315;27;20047;-91
2022/09/03 07:48:56;;;;;;;2.13;1.13;;;31.10;31.40;;;;;;5128681;27;20050;-88
2022/09/03 07:51:27;;;;;;;4.18;1.20;;;30.80;31.20;;;;;;5100705;28;20142;-87
2022/09/03 07:54:01;;;;;;;3.88;1.17;;;30.90;31.80;;;;;;5098412;28;20031;-88
2022/09/03 07:56:31;;;;;;;1.23;1.10;;;30.60;31.60;;;;;;5105059;28;20085;-86
2022/09/03 07:58:58;;;;;;;2.70;0.80;;;30.60;31.40;;;;;;5102232;28;20092;-87
2022/09/03 08:01:25;;;;;;;;;;;30.20;31.10;;;;;;5089916;28;20019;-88
2022/09/03 08:03:52;;;;;;;5.30;1.00;;;30.00;32.90;;;;;;5090825;28;19904;-87
2022/09/03 08:06:20;;;;;;;2.15;0.98;;;29.90;31.60;;;;;;5101938;28;20424;-88
2022/09/03 08:08:47;;;;;;;3.53;0.90;;;30.20;31.90;;;;;;5096328;28;20103;-89
2022/09/03 08:11:15;;;;;;;1.10;0.90;;;30.60;31.10;;;;;;5103715;28;20082;-87
2022/09/03 08:13:48;;;;;;;1.65;0.82;;;29.60;31.20;;;;;;5096502;28;20025;-89
2022/09/03 08:16:19;;;;;;;2.55;0.95;;;28.70;32.40;;;;;;5090254;28;20477;-89
2022/09/03 08:18:46;;;;;;;2.50;0.77;;;28.60;33.00;;;;;;5086959;28;20062;-88
2022/09/03 08:21:18;;;;;;;2.53;0.80;;;28.80;33.10;;;;;;5085267;28;20062;-87
2022/09/03 08:23:48;;;;;;;2.35;1.30;;;28.80;32.60;;;;;;5084707;28;20114;-88
2022/09/03 08:26:16;;;;;;;2.75;1.23;;;27.60;32.90;;;;;;5081670;28;20024;-91
2022/09/03 08:28:43;;;;;;;4.35;1.38;;;26.40;35.00;;;;;;5082821;28;20055;-88
2022/09/03 08:31:10;;;;;;;;;;;26.30;36.00;;;;;;5085626;28;20017;-90
2022/09/03 08:33:37;;;;;;;2.75;1.30;;;26.60;35.70;;;;;;5089319;28;20053;-87
2022/09/03 08:36:30;;;;;;;2.30;1.38;;;26.20;34.60;;;;;;5091927;28;20028;-90
2022/09/03 08:39:02;;;;;;;1.20;1.10;;;25.90;35.90;;;;;;5097473;28;20088;-92
2022/09/03 08:41:54;;;;;;;3.63;1.58;;;26.10;35.80;;;;;;5087689;28;20107;-91
2022/09/03 08:44:33;;;;;;;1.00;0.90;;;;;;;;;;5095969;28;20028;-91
2022/09/03 08:47:23;;;;;;;1.73;1.20;;;;;;;;;;5091335;28;20043;-90
2022/09/03 08:50:01;;;;;;;3.97;0.95;;;26.50;35.40;;;;;;5026809;28;20486;-86
2022/09/03 08:52:45;;;;;;;2.67;1.23;;;27.00;35.20;;;;;;5042452;28;20037;-89
2022/09/03 08:55:22;;;;;;;2.25;1.38;;;27.50;34.90;;;;;;5041176;28;20045;-90
2022/09/03 08:58:05;;;;;;;3.53;1.00;;;27.70;33.30;;;;;;5045807;28;20033;-91
2022/09/03 09:01:00;;;;;;;1.40;0.63;;;26.50;34.30;;;;;;5049930;28;20072;-89
2022/09/03 09:03:42;;;;;;;5.82;1.20;;;24.80;35.60;;;;;;5038453;28;20029;-87
2022/09/03 09:06:38;;;;;;;1.98;1.20;;;23.10;38.40;;;;;;5044381;28;20536;-89
2022/09/03 09:09:16;;;;;;;;;;;21.70;40.70;;;;;;5024713;28;20037;-89
2022/09/03 09:11:57;;;;;;;0.90;0.75;;;21.80;41.80;;;;;;5026382;28;19968;-90
2022/09/03 09:15:02;;;;;;;3.95;0.98;;;23.40;39.70;;;;;;5026479;28;20105;-90
2022/09/03 09:17:51;;;;;;;3.13;1.02;;;25.70;37.00;;;;;;4959258;29;20047;-90
2022/09/03 09:20:48;;;;;;;5.18;1.00;;;27.40;34.80;;;;;;4940627;29;20042;-86
2022/09/03 09:23:18;;;;;;;1.45;0.75;;;;;;;;;;4947813;29;20023;-90
2022/09/03 09:25:48;;;;;;;2.33;0.70;;;;;;;;;;4975280;28;20042;-89
2022/09/03 09:28:17;;;;;;;2.03;0.90;;;;;;;;;;5033538;28;20458;-87
2022/09/03 09:30:46;;;;;;;3.33;0.70;;;;;;;;;;5026215;28;20048;-86
2022/09/03 09:33:12;;;;;;;3.33;0.95;;;;;;;;;;5017679;28;20133;-86
2022/09/03 09:35:41;;;;;;;1.73;1.00;;;;;;;;;;5014168;28;20030;-86
2022/09/03 09:38:07;;;;;;;1.35;1.08;;;;;;;;;;5014747;28;20045;-86
2022/09/03 09:40:35;;;;;;;3.40;1.10;;;;;;;;;;5014387;28;20480;-85
2022/09/03 09:43:07;;;;;;;1.42;1.02;;;31.10;30.80;;;;;;5015983;28;20109;-84
2022/09/03 09:45:33;;;;;;;1.30;0.82;;;24.20;35.40;;;;;;5021723;28;20018;-84
2022/09/03 09:48:02;;;;;;;1.02;0.90;;;23.70;34.70;;;;;;5012360;28;20026;-85
2022/09/03 09:50:27;;;;;;;2.15;0.90;;;22.40;36.10;;;;;;5028491;28;20041;-89
2022/09/03 09:53:13;;;;;;;2.92;1.70;;;21.40;38.70;;;;;;5063163;28;20036;-86
2022/09/03 09:55:52;;;;;;;5.68;1.95;;;20.60;39.10;;;;;;5097889;28;20163;-86
2022/09/03 09:58:19;;;;;;;2.05;0.90;;;;;;;;;;5086428;28;20028;-84
2022/09/03 10:01:11;;;;;;;1.50;1.17;;;20.10;40.20;;;;;;5107053;28;20091;-88
2022/09/03 10:03:48;;;;;;;3.03;1.00;;;18.90;42.10;;;;;;5091759;28;20032;-87
2022/09/03 10:09:11;;;;;;;4.13;1.45;;;18.50;43.40;;;;;;5093531;28;20088;-87
2022/09/03 10:11:38;;;;;;;;;;;;;;;;;;5086620;28;20028;-89
2022/09/03 10:14:12;;;;;;;4.20;1.38;;;18.30;43.80;;;;;;5096063;28;20358;-87
2022/09/03 10:16:41;;;;;;;1.50;1.20;;;18.90;43.90;;;;;;5088580;28;20043;-90
2022/09/03 10:19:22;;;;;;;0.77;0.77;;;19.80;41.60;;;;;;5101514;28;20032;-86
2022/09/03 10:22:16;;;;;;;3.17;1.27;;;20.20;40.50;;;;;;5105849;28;20044;-89
2022/09/03 10:25:00;;;;;;;2.08;1.02;;;19.70;40.50;;;;;;5105127;28;20129;-89
2022/09/03 10:27:27;;;;;;;4.00;1.48;;;19.00;41.70;;;;;;5092733;28;20021;-88
2022/09/03 10:29:53;;;;;;;;;;;18.50;42.70;;;;;;5105052;28;20032;-88
2022/09/03 10:32:35;;;;;;;0.68;0.52;;;18.10;42.70;;;;;;5092093;28;19903;-88
2022/09/03 10:35:19;;;;;;;2.95;1.10;;;17.80;44.20;;;;;;5100233;28;20008;-90
2022/09/03 10:38:30;;;;;;;3.33;0.80;;;17.60;44.90;;;;;;5101842;28;20035;-86
2022/09/03 10:41:15;;;;;;;1.25;1.10;;;;;;;;;;5089605;28;20036;-87
2022/09/03 10:43:44;;;;;;;4.15;1.10;;;;;;;;;;5086597;28;20020;-90
2022/09/03 10:46:15;;;;;;;2.65;1.05;;;;;;;;;;5097208;28;20020;-88
2022/09/03 10:48:44;;;;;;;1.63;1.10;;;;;;;;;;5096066;28;20090;-91
2022/09/03 10:51:32;;;;;;;1.45;1.10;;;;;;;;;;5096961;28;20377;-90
2022/09/03 10:54:07;;;;;;;3.08;0.93;;;;;;;;;;5044923;28;20030;-89
2022/09/03 10:56:41;;;;;;;1.67;1.00;;;;;;;;;;5033522;28;20111;-88
2022/09/03 10:59:26;;;;;;;3.55;1.55;;;;;;;;;;5034830;28;20056;-93
2022/09/03 11:01:55;;;;;;;3.28;0.75;;;;;;;;;;5038314;28;20111;-87
2022/09/03 11:04:37;;;;;;;3.72;0.93;;;;;;;;;;5032950;28;20030;-88
2022/09/03 11:07:04;;;;;;;4.72;0.82;;;;;;;;;;5047397;28;20382;-87
2022/09/03 11:09:38;;;;;;;1.02;0.82;;;;;;;;;;5042166;28;20052;-89
2022/09/03 11:12:25;;;;;;;1.45;0.88;;;;;;;;;;5031605;28;20087;-87
2022/09/03 11:15:11;;;;;;;5.18;1.10;;;;;;;;;;5027638;28;20085;-86
2022/09/03 11:17:39;;;;;;;3.67;1.00;;;;;;;;;;5032382;28;20065;-89
2022/09/03 11:20:19;;;;;;;2.47;1.35;;;;;;;;;;5030698;28;20267;-86
2022/09/03 11:22:46;;;;;;;4.75;1.50;;;;;;;;;;5039611;28;20057;-88
2022/09/03 11:25:14;;;;;;;4.20;1.17;;;;;;;;;;5037927;28;20040;-87
2022/09/03 11:27:43;;;;;;;1.85;1.23;;;;;;;;;;5023291;28;20033;-86
2022/09/03 11:30:13;;;;;;;1.83;1.00;;;;;;;;;;5058429;28;20050;-87
2022/09/03 11:32:41;;;;;;;1.90;1.02;;;;;;;;;;5099616;28;20028;-88
2022/09/03 11:35:15;;;;;;;3.00;1.70;;;;;;;;;;5106458;28;20063;-90
2022/09/03 11:37:49;;;;;;;1.40;1.10;;;;;;;;;;5090452;28;20071;-87
2022/09/03 11:40:18;;;;;;;0.70;0.70;;;;;;;;;;5094107;28;20020;-89
2022/09/03 11:42:46;;;;;;;2.38;1.00;;;;;;;;;;5104840;28;20034;-87
2022/09/03 11:45:21;;;;;;;1.75;1.17;;;;;;;;;;5103492;28;20024;-87
2022/09/03 11:47:47;;;;;;;3.63;1.15;;;;;;;;;;5103814;28;20044;-91
2022/09/03 11:50:19;;;;;;;4.68;1.30;;;;;;;;;;5106105;28;20023;-88
2022/09/03 11:52:45;;;;;;;3.70;1.27;;;;;;;;;;5114627;27;20028;-89
2022/09/03 11:55:25;;;;;;;2.63;1.38;;;;;;;;;;5095719;28;20042;-88
2022/09/03 11:57:54;;;;;;;3.30;1.67;;;;;;;;;;5094596;28;20036;-88
2022/09/03 12:00:23;;;;;;;2.47;1.63;;;;;;;;;;5086833;28;20088;-88
2022/09/03 12:02:59;;;;;;;1.13;0.73;;;;;;;;;;5096310;28;20024;-86
2022/09/03 12:05:28;;;;;;;2.45;1.52;;;;;;;;;;5107461;28;20042;-90
2022/09/03 12:08:13;;;;;;;3.35;1.67;;;;;;;;;;5117334;28;20088;-88
2022/09/03 12:10:40;;;;;;;2.33;1.02;;;;;;;;;;5119663;28;20473;-87
2022/09/03 12:13:07;;;;;;;1.38;1.17;;;;;;;;;;5093772;28;20060;-91
2022/09/03 12:15:36;;;;;;;3.50;1.40;;;;;;;;;;5112877;28;20020;-90
2022/09/03 12:18:19;;;;;;;2.80;1.30;;;;;;;;;;5112386;28;20024;-88
2022/09/03 12:20:47;;;;;;;1.70;1.00;;;;;;;;;;5115492;27;20021;-92
2022/09/03 12:23:27;;;;;;;3.50;2.17;;;;;;;;;;5120225;27;20044;-91
2022/09/03 12:25:53;;;;;;;1.83;1.40;;;;;;;;;;5079090;28;20071;-89
2022/09/03 12:28:22;;;;;;;2.03;1.00;;;;;;;;;;5077705;28;20088;-90
2022/09/03 12:30:52;;;;;;;4.35;1.38;;;;;;;;;;5095694;28;20027;-91
2022/09/03 12:36:05;;;;;;;2.97;1.80;;;;;;;;;;5098912;28;20059;-91
2022/09/03 12:38:36;;;;;;;3.80;1.40;;;;;;;;;;5069346;28;20044;-92
2022/09/03 12:41:02;;;;;;;1.42;0.90;;;;;;;;;;5075785;28;20130;-90
2022/09/03 12:43:29;;;;;;;2.40;1.60;;;;;;;;;;5072342;28;20089;-83
2022/09/03 12:45:55;;;;;;;2.05;1.40;;;;;;;;;;5059167;28;20494;-85
2022/09/03 12:48:21;;;;;;;5.03;1.50;;;;;;;;;;5064105;28;20036;-86
2022/09/03 12:50:50;;;;;;;4.38;1.30;;;;;;;;;;5064458;28;20090;-87
2022/09/03 12:53:24;;;;;;;4.65;1.33;;;;;;;;;;5068744;28;20041;-86
2022/09/03 12:56:00;;;;;;;2.25;1.40;;;;;;;;;;5077537;28;20044;-89
2022/09/03 12:58:34;;;;;;;4.13;1.13;;;;;;;;;;5072863;28;20036;-90
2022/09/03 13:01:03;;;;;;;2.85;1.27;;;;;;;;;;5066216;28;20033;-91
2022/09/03 13:03:48;;;;;;;4.00;1.48;;;;;;;;;;5061465;28;20025;-86
2022/09/03 13:06:18;;;;;;;5.57;1.77;;;;;;;;;;5063723;28;20138;-84
2022/09/03 13:08:47;;;;;;;5.75;2.08;;;;;;;;;;5066994;28;20037;-83
2022/09/03 13:11:16;;;;;;;2.47;1.48;;;;;;;;;;5065904;28;20090;-86
2022/09/03 13:13:50;;;;;;;9.98;1.83;;;;;;;;;;5073116;28;20060;-81
2022/09/03 13:16:25;;;;;;;6.05;1.00;;;;;;;;;;5061584;28;20532;-83
2022/09/03 13:19:10;;;;;;;1.23;0.90;;;;;;;;;;5072540;28;20052;-83
2022/09/03 13:21:37;;;;;;;2.88;1.17;;;;;;;;;;5066719;28;20025;-82
2022/09/03 13:24:09;;;;;;;2.80;1.10;;;;;;;;;;5094323;28;20021;-84
2022/09/03 13:26:38;;;;;;;1.40;1.02;;;;;;;;;;5089060;28;20020;-85
2022/09/03 13:29:07;;;;;;;2.47;1.20;;;;;;;;;;5079747;28;20021;-85
2022/09/03 13:31:46;;;;;;;3.95;1.38;;;;;;;;;;5065189;28;20031;-85
2022/09/03 13:34:12;;;;;;;5.70;1.35;;;;;;;;;;5090029;28;20041;-90
2022/09/03 13:36:45;;;;;;;3.97;1.92;;;;;;;;;;5077894;28;20540;-89
2022/09/03 13:39:32;;;;;;;3.25;1.30;;;;;;;;;;5078480;28;20082;-86
2022/09/03 13:42:06;;;;;;;3.33;1.17;;;;;;;;;;5080726;28;20029;-88
2022/09/03 13:44:36;;;;;;;2.38;1.15;;;;;;;;;;5063576;28;20029;-89
2022/09/03 13:47:14;;;;;;;1.30;0.90;;;;;;;;;;5077959;28;20081;-89
2022/09/03 13:52:47;;;;;;;0.80;0.68;;;;;;;;;;5083398;28;20059;-90
2022/09/03 13:55:22;;;;;;;3.58;1.27;;;;;;;;;;5090454;28;20013;-87
2022/09/03 13:57:57;;;;;;;1.88;1.10;;;;;;;;;;5073207;28;20052;-85
2022/09/03 14:00:28;;;;;;;3.20;1.20;;;;;;;;;;5080512;28;20420;-82
2022/09/03 14:02:58;;;;;;;2.72;0.98;;;;;;;;;;5080224;28;20052;-81
2022/09/03 14:05:38;;;;;;;2.38;1.20;;;;;;;;;;5077357;28;20853;-87
2022/09/03 14:08:13;;;;;;;4.70;1.02;;;;;;;;;;5079244;28;20041;-88
2022/09/03 14:10:44;;;;;;;7.03;1.50;;;;;;;;;;5083118;28;20080;-84